sensor_id;sensor_type;location;lat;lon;timestamp;temperature;humidity
3994;DHT22;2011;48.238;13.948;2023-07-28T00:00:43;18.50;99.90
3994;DHT22;2011;48.238;13.948;2023-07-28T00:03:11;18.40;99.90
3994;DHT22;2011;48.238;13.948;2023-07-28T00:05:38;18.50;99.90
3994;DHT22;2011;48.238;13.948;2023-07-28T00:08:07;18.40;99.90
3994;DHT22;2011;48.238;13.948;2023-07-28T00:10:40;18.40;99.90
3994;DHT22;2011;48.238;13.948;2023-07-28T00:13:08;18.40;99.90
3994;DHT22;2011;48.238;13.948;2023-07-28T00:15:36;18.30;99.90
3994;DHT22;2011;48.238;13.948;2023-07-28T00:18:03;18.30;99.90
3994;DHT22;2011;48.238;13.948;2023-07-28T00:20:31;18.30;99.90
3994;DHT22;2011;48.238;13.948;2023-07-28T00:22:58;18.20;99.90
3994;DHT22;2011;48.238;13.948;2023-07-28T00:25:27;18.20;99.90
3994;DHT22;2011;48.238;13.948;2023-07-28T00:27:55;18.20;99.90
3994;DHT22;2011;48.238;13.948;2023-07-28T00:30:23;18.10;99.90
3994;DHT22;2011;48.238;13.948;2023-07-28T00:32:51;18.20;99.90
3994;DHT22;2011;48.238;13.948;2023-07-28T00:35:18;18.10;99.90
3994;DHT22;2011;48.238;13.948;2023-07-28T00:37:46;18.10;99.90
3994;DHT22;2011;48.238;13.948;2023-07-28T00:40:14;18.10;99.90
3994;DHT22;2011;48.238;13.948;2023-07-28T00:42:42;18.10;99.90
3994;DHT22;2011;48.238;13.948;2023-07-28T00:45:10;18.10;99.90
3994;DHT22;2011;48.238;13.948;2023-07-28T00:47:38;18.00;99.90
3994;DHT22;2011;48.238;13.948;2023-07-28T00:50:07;18.00;99.90
3994;DHT22;2011;48.238;13.948;2023-07-28T00:52:35;18.00;99.90
3994;DHT22;2011;48.238;13.948;2023-07-28T00:55:03;17.90;99.90
3994;DHT22;2011;48.238;13.948;2023-07-28T00:57:31;17.90;99.90
3994;DHT22;2011;48.238;13.948;2023-07-28T01:00:00;17.90;99.90
3994;DHT22;2011;48.238;13.948;2023-07-28T01:02:28;17.90;99.90
3994;DHT22;2011;48.238;13.948;2023-07-28T01:04:55;17.80;99.90
3994;DHT22;2011;48.238;13.948;2023-07-28T01:07:29;17.80;99.90
3994;DHT22;2011;48.238;13.948;2023-07-28T01:10:08;17.80;99.90
3994;DHT22;2011;48.238;13.948;2023-07-28T01:12:37;17.80;99.90
3994;DHT22;2011;48.238;13.948;2023-07-28T01:15:07;17.80;99.90
3994;DHT22;2011;48.238;13.948;2023-07-28T01:17:34;17.80;99.90
3994;DHT22;2011;48.238;13.948;2023-07-28T01:20:02;17.80;99.90
3994;DHT22;2011;48.238;13.948;2023-07-28T01:22:47;17.80;99.90
3994;DHT22;2011;48.238;13.948;2023-07-28T01:25:22;17.80;99.90
3994;DHT22;2011;48.238;13.948;2023-07-28T01:27:53;17.80;99.90
3994;DHT22;2011;48.238;13.948;2023-07-28T01:30:23;17.80;99.90
3994;DHT22;2011;48.238;13.948;2023-07-28T01:32:54;17.80;99.90
3994;DHT22;2011;48.238;13.948;2023-07-28T01:35:22;17.90;99.90
3994;DHT22;2011;48.238;13.948;2023-07-28T01:37:50;17.70;99.90
3994;DHT22;2011;48.238;13.948;2023-07-28T01:40:17;17.60;99.90
3994;DHT22;2011;48.238;13.948;2023-07-28T01:42:45;17.60;99.90
3994;DHT22;2011;48.238;13.948;2023-07-28T01:45:15;17.50;99.90
3994;DHT22;2011;48.238;13.948;2023-07-28T01:47:44;17.40;99.90
3994;DHT22;2011;48.238;13.948;2023-07-28T01:50:11;17.50;99.90
3994;DHT22;2011;48.238;13.948;2023-07-28T01:52:38;17.50;99.90
3994;DHT22;2011;48.238;13.948;2023-07-28T01:55:07;17.50;99.90
3994;DHT22;2011;48.238;13.948;2023-07-28T01:57:34;17.60;99.90
3994;DHT22;2011;48.238;13.948;2023-07-28T02:00:03;17.60;99.90
3994;DHT22;2011;48.238;13.948;2023-07-28T02:02:32;17.60;99.90
3994;DHT22;2011;48.238;13.948;2023-07-28T02:04:59;17.60;99.90
3994;DHT22;2011;48.238;13.948;2023-07-28T02:07:27;17.60;99.90
3994;DHT22;2011;48.238;13.948;2023-07-28T02:09:55;17.60;99.90
3994;DHT22;2011;48.238;13.948;2023-07-28T02:12:23;17.60;99.90
3994;DHT22;2011;48.238;13.948;2023-07-28T02:14:51;17.60;99.90
3994;DHT22;2011;48.238;13.948;2023-07-28T02:17:19;17.50;99.90
3994;DHT22;2011;48.238;13.948;2023-07-28T02:19:47;17.60;99.90
3994;DHT22;2011;48.238;13.948;2023-07-28T02:22:15;17.50;99.90
3994;DHT22;2011;48.238;13.948;2023-07-28T02:24:42;17.60;99.90
3994;DHT22;2011;48.238;13.948;2023-07-28T02:27:10;17.60;99.90
3994;DHT22;2011;48.238;13.948;2023-07-28T02:29:37;17.60;99.90
3994;DHT22;2011;48.238;13.948;2023-07-28T02:32:06;17.60;99.90
3994;DHT22;2011;48.238;13.948;2023-07-28T02:34:33;17.60;99.90
3994;DHT22;2011;48.238;13.948;2023-07-28T02:37:03;17.60;99.90
3994;DHT22;2011;48.238;13.948;2023-07-28T02:39:30;17.50;99.90
3994;DHT22;2011;48.238;13.948;2023-07-28T02:41:58;17.50;99.90
3994;DHT22;2011;48.238;13.948;2023-07-28T02:44:26;17.50;99.90
3994;DHT22;2011;48.238;13.948;2023-07-28T02:46:53;17.50;99.90
3994;DHT22;2011;48.238;13.948;2023-07-28T02:49:21;17.50;99.90
3994;DHT22;2011;48.238;13.948;2023-07-28T02:51:48;17.40;99.90
3994;DHT22;2011;48.238;13.948;2023-07-28T02:54:17;17.40;99.90
3994;DHT22;2011;48.238;13.948;2023-07-28T02:56:45;17.40;99.90
3994;DHT22;2011;48.238;13.948;2023-07-28T02:59:14;17.40;99.90
3994;DHT22;2011;48.238;13.948;2023-07-28T03:01:41;17.30;99.90
3994;DHT22;2011;48.238;13.948;2023-07-28T03:04:08;17.20;99.90
3994;DHT22;2011;48.238;13.948;2023-07-28T03:06:36;17.30;99.90
3994;DHT22;2011;48.238;13.948;2023-07-28T03:09:04;17.20;99.90
3994;DHT22;2011;48.238;13.948;2023-07-28T03:11:34;17.20;99.90
3994;DHT22;2011;48.238;13.948;2023-07-28T03:14:01;17.20;99.90
3994;DHT22;2011;48.238;13.948;2023-07-28T03:16:29;17.20;99.90
3994;DHT22;2011;48.238;13.948;2023-07-28T03:18:56;17.10;99.90
3994;DHT22;2011;48.238;13.948;2023-07-28T03:21:23;17.10;99.90
3994;DHT22;2011;48.238;13.948;2023-07-28T03:23:51;17.10;99.90
3994;DHT22;2011;48.238;13.948;2023-07-28T03:26:18;17.00;99.90
3994;DHT22;2011;48.238;13.948;2023-07-28T03:28:47;17.00;99.90
3994;DHT22;2011;48.238;13.948;2023-07-28T03:31:15;17.00;99.90
3994;DHT22;2011;48.238;13.948;2023-07-28T03:33:42;16.90;99.90
3994;DHT22;2011;48.238;13.948;2023-07-28T03:36:10;16.80;99.90
3994;DHT22;2011;48.238;13.948;2023-07-28T03:38:38;16.80;99.90
3994;DHT22;2011;48.238;13.948;2023-07-28T03:41:05;16.80;99.90
3994;DHT22;2011;48.238;13.948;2023-07-28T03:43:33;16.80;99.90
3994;DHT22;2011;48.238;13.948;2023-07-28T03:46:02;16.80;99.90
3994;DHT22;2011;48.238;13.948;2023-07-28T03:48:30;16.70;99.90
3994;DHT22;2011;48.238;13.948;2023-07-28T03:50:57;16.70;99.90
3994;DHT22;2011;48.238;13.948;2023-07-28T03:53:25;16.60;99.90
3994;DHT22;2011;48.238;13.948;2023-07-28T03:55:52;16.50;99.90
3994;DHT22;2011;48.238;13.948;2023-07-28T03:58:23;16.60;99.90
3994;DHT22;2011;48.238;13.948;2023-07-28T04:01:18;16.60;99.90
3994;DHT22;2011;48.238;13.948;2023-07-28T04:03:47;16.60;99.90
3994;DHT22;2011;48.238;13.948;2023-07-28T04:06:15;16.60;99.90
3994;DHT22;2011;48.238;13.948;2023-07-28T04:08:44;16.60;99.90
3994;DHT22;2011;48.238;13.948;2023-07-28T04:11:11;16.60;99.90
3994;DHT22;2011;48.238;13.948;2023-07-28T04:13:39;16.60;99.90
3994;DHT22;2011;48.238;13.948;2023-07-28T04:16:06;16.60;99.90
3994;DHT22;2011;48.238;13.948;2023-07-28T04:18:35;16.60;99.90
3994;DHT22;2011;48.238;13.948;2023-07-28T04:21:03;16.60;99.90
3994;DHT22;2011;48.238;13.948;2023-07-28T04:23:31;16.60;99.90
3994;DHT22;2011;48.238;13.948;2023-07-28T04:25:58;16.60;99.90
3994;DHT22;2011;48.238;13.948;2023-07-28T04:28:26;16.60;99.90
3994;DHT22;2011;48.238;13.948;2023-07-28T04:30:53;16.70;99.90
3994;DHT22;2011;48.238;13.948;2023-07-28T04:33:21;16.70;99.90
3994;DHT22;2011;48.238;13.948;2023-07-28T04:35:51;16.70;99.90
3994;DHT22;2011;48.238;13.948;2023-07-28T04:38:18;16.70;99.90
3994;DHT22;2011;48.238;13.948;2023-07-28T04:40:45;16.70;99.90
3994;DHT22;2011;48.238;13.948;2023-07-28T04:43:13;16.70;99.90
3994;DHT22;2011;48.238;13.948;2023-07-28T04:45:40;16.70;99.90
3994;DHT22;2011;48.238;13.948;2023-07-28T04:48:08;16.70;99.90
3994;DHT22;2011;48.238;13.948;2023-07-28T04:50:35;16.70;99.90
3994;DHT22;2011;48.238;13.948;2023-07-28T04:53:04;16.70;99.90
3994;DHT22;2011;48.238;13.948;2023-07-28T04:55:31;16.70;99.90
3994;DHT22;2011;48.238;13.948;2023-07-28T04:57:58;16.80;99.90
3994;DHT22;2011;48.238;13.948;2023-07-28T05:00:25;16.80;99.90
3994;DHT22;2011;48.238;13.948;2023-07-28T05:02:53;16.90;99.90
3994;DHT22;2011;48.238;13.948;2023-07-28T05:05:20;16.90;99.90
3994;DHT22;2011;48.238;13.948;2023-07-28T05:07:47;17.00;99.90
3994;DHT22;2011;48.238;13.948;2023-07-28T05:10:16;17.00;99.90
3994;DHT22;2011;48.238;13.948;2023-07-28T05:12:43;17.10;99.90
3994;DHT22;2011;48.238;13.948;2023-07-28T05:15:10;17.20;99.90
3994;DHT22;2011;48.238;13.948;2023-07-28T05:17:37;17.30;99.90
3994;DHT22;2011;48.238;13.948;2023-07-28T05:20:05;17.40;99.90
3994;DHT22;2011;48.238;13.948;2023-07-28T05:22:33;17.60;99.90
3994;DHT22;2011;48.238;13.948;2023-07-28T05:25:00;17.70;99.90
3994;DHT22;2011;48.238;13.948;2023-07-28T05:27:28;17.80;99.90
3994;DHT22;2011;48.238;13.948;2023-07-28T05:29:56;17.90;99.90
3994;DHT22;2011;48.238;13.948;2023-07-28T05:32:23;18.00;99.90
3994;DHT22;2011;48.238;13.948;2023-07-28T05:34:50;18.20;99.90
3994;DHT22;2011;48.238;13.948;2023-07-28T05:37:17;18.30;99.90
3994;DHT22;2011;48.238;13.948;2023-07-28T05:39:44;18.40;99.90
3994;DHT22;2011;48.238;13.948;2023-07-28T05:42:11;18.60;99.90
3994;DHT22;2011;48.238;13.948;2023-07-28T05:44:40;18.70;99.90
3994;DHT22;2011;48.238;13.948;2023-07-28T05:47:07;18.90;99.90
3994;DHT22;2011;48.238;13.948;2023-07-28T05:49:35;18.90;99.90
3994;DHT22;2011;48.238;13.948;2023-07-28T05:52:02;19.10;99.90
3994;DHT22;2011;48.238;13.948;2023-07-28T05:54:30;19.20;99.90
3994;DHT22;2011;48.238;13.948;2023-07-28T05:56:57;19.40;99.90
3994;DHT22;2011;48.238;13.948;2023-07-28T05:59:24;19.50;99.90
3994;DHT22;2011;48.238;13.948;2023-07-28T06:01:53;19.60;99.90
3994;DHT22;2011;48.238;13.948;2023-07-28T06:04:20;19.70;99.90
3994;DHT22;2011;48.238;13.948;2023-07-28T06:06:47;19.80;99.90
3994;DHT22;2011;48.238;13.948;2023-07-28T06:09:15;19.90;99.90
3994;DHT22;2011;48.238;13.948;2023-07-28T06:11:42;20.00;99.90
3994;DHT22;2011;48.238;13.948;2023-07-28T06:14:09;20.10;99.90
3994;DHT22;2011;48.238;13.948;2023-07-28T06:16:36;20.20;99.90
3994;DHT22;2011;48.238;13.948;2023-07-28T06:19:05;20.30;99.90
3994;DHT22;2011;48.238;13.948;2023-07-28T06:21:34;20.40;99.90
3994;DHT22;2011;48.238;13.948;2023-07-28T06:24:01;20.50;99.90
3994;DHT22;2011;48.238;13.948;2023-07-28T06:26:28;20.60;99.90
3994;DHT22;2011;48.238;13.948;2023-07-28T06:28:55;20.60;99.90
3994;DHT22;2011;48.238;13.948;2023-07-28T06:31:23;20.70;99.90
3994;DHT22;2011;48.238;13.948;2023-07-28T06:33:50;20.80;99.90
3994;DHT22;2011;48.238;13.948;2023-07-28T06:36:19;20.90;99.90
3994;DHT22;2011;48.238;13.948;2023-07-28T06:38:46;21.10;99.90
3994;DHT22;2011;48.238;13.948;2023-07-28T06:41:15;21.10;99.90
3994;DHT22;2011;48.238;13.948;2023-07-28T06:43:42;21.20;99.90
3994;DHT22;2011;48.238;13.948;2023-07-28T06:46:09;21.30;99.90
3994;DHT22;2011;48.238;13.948;2023-07-28T06:48:37;21.40;99.90
3994;DHT22;2011;48.238;13.948;2023-07-28T06:51:04;21.50;99.90
3994;DHT22;2011;48.238;13.948;2023-07-28T06:53:33;21.60;99.90
3994;DHT22;2011;48.238;13.948;2023-07-28T06:56:00;21.70;99.90
3994;DHT22;2011;48.238;13.948;2023-07-28T06:58:27;21.70;99.90
3994;DHT22;2011;48.238;13.948;2023-07-28T07:00:55;21.90;99.90
3994;DHT22;2011;48.238;13.948;2023-07-28T07:03:23;22.00;99.90
3994;DHT22;2011;48.238;13.948;2023-07-28T07:05:51;22.10;99.90
3994;DHT22;2011;48.238;13.948;2023-07-28T07:08:18;22.20;99.90
3994;DHT22;2011;48.238;13.948;2023-07-28T07:10:49;22.40;99.90
3994;DHT22;2011;48.238;13.948;2023-07-28T07:13:17;22.60;99.90
3994;DHT22;2011;48.238;13.948;2023-07-28T07:15:44;22.70;99.90
3994;DHT22;2011;48.238;13.948;2023-07-28T07:18:12;22.70;99.90
3994;DHT22;2011;48.238;13.948;2023-07-28T07:20:39;22.80;99.90
3994;DHT22;2011;48.238;13.948;2023-07-28T07:23:07;23.00;99.90
3994;DHT22;2011;48.238;13.948;2023-07-28T07:25:34;23.00;99.90
3994;DHT22;2011;48.238;13.948;2023-07-28T07:28:03;22.80;99.90
3994;DHT22;2011;48.238;13.948;2023-07-28T07:30:32;22.60;99.90
3994;DHT22;2011;48.238;13.948;2023-07-28T07:33:00;22.40;99.90
3994;DHT22;2011;48.238;13.948;2023-07-28T07:35:27;22.30;99.90
3994;DHT22;2011;48.238;13.948;2023-07-28T07:37:55;22.40;99.90
3994;DHT22;2011;48.238;13.948;2023-07-28T07:40:22;22.80;99.90
3994;DHT22;2011;48.238;13.948;2023-07-28T07:42:50;22.90;99.90
3994;DHT22;2011;48.238;13.948;2023-07-28T07:45:19;23.10;99.90
3994;DHT22;2011;48.238;13.948;2023-07-28T07:47:46;23.30;99.90
3994;DHT22;2011;48.238;13.948;2023-07-28T07:50:14;23.40;99.90
3994;DHT22;2011;48.238;13.948;2023-07-28T07:52:41;23.50;99.90
3994;DHT22;2011;48.238;13.948;2023-07-28T07:55:10;23.50;99.90
3994;DHT22;2011;48.238;13.948;2023-07-28T07:57:38;23.50;99.90
3994;DHT22;2011;48.238;13.948;2023-07-28T08:00:07;23.40;99.90
3994;DHT22;2011;48.238;13.948;2023-07-28T08:02:36;23.30;99.90
3994;DHT22;2011;48.238;13.948;2023-07-28T08:05:05;23.30;99.90
3994;DHT22;2011;48.238;13.948;2023-07-28T08:07:33;23.30;99.90
3994;DHT22;2011;48.238;13.948;2023-07-28T08:10:01;23.10;99.90
3994;DHT22;2011;48.238;13.948;2023-07-28T08:12:29;23.10;99.90
3994;DHT22;2011;48.238;13.948;2023-07-28T08:14:56;23.10;99.90
3994;DHT22;2011;48.238;13.948;2023-07-28T08:17:23;23.10;99.90
3994;DHT22;2011;48.238;13.948;2023-07-28T08:19:52;23.30;99.90
3994;DHT22;2011;48.238;13.948;2023-07-28T08:22:20;23.30;99.90
3994;DHT22;2011;48.238;13.948;2023-07-28T08:24:48;23.40;99.90
3994;DHT22;2011;48.238;13.948;2023-07-28T08:27:15;23.50;99.90
3994;DHT22;2011;48.238;13.948;2023-07-28T08:29:42;23.10;99.90
3994;DHT22;2011;48.238;13.948;2023-07-28T08:32:10;23.00;99.90
3994;DHT22;2011;48.238;13.948;2023-07-28T08:34:37;23.10;99.90
3994;DHT22;2011;48.238;13.948;2023-07-28T08:37:06;23.10;99.90
3994;DHT22;2011;48.238;13.948;2023-07-28T08:39:33;23.30;99.90
3994;DHT22;2011;48.238;13.948;2023-07-28T08:42:01;23.40;99.90
3994;DHT22;2011;48.238;13.948;2023-07-28T08:44:30;23.40;99.90
3994;DHT22;2011;48.238;13.948;2023-07-28T08:46:59;23.20;99.90
3994;DHT22;2011;48.238;13.948;2023-07-28T08:49:27;23.10;99.90
3994;DHT22;2011;48.238;13.948;2023-07-28T08:51:59;23.10;99.90
3994;DHT22;2011;48.238;13.948;2023-07-28T08:54:28;23.30;99.90
3994;DHT22;2011;48.238;13.948;2023-07-28T08:56:57;23.30;99.90
3994;DHT22;2011;48.238;13.948;2023-07-28T08:59:26;23.30;99.90
3994;DHT22;2011;48.238;13.948;2023-07-28T09:01:54;23.30;99.90
3994;DHT22;2011;48.238;13.948;2023-07-28T09:04:24;23.30;99.90
3994;DHT22;2011;48.238;13.948;2023-07-28T09:06:51;23.20;99.90
3994;DHT22;2011;48.238;13.948;2023-07-28T09:09:20;23.30;99.90
3994;DHT22;2011;48.238;13.948;2023-07-28T09:11:51;23.30;99.90
3994;DHT22;2011;48.238;13.948;2023-07-28T09:14:21;23.40;99.90
3994;DHT22;2011;48.238;13.948;2023-07-28T09:16:50;23.50;99.90
3994;DHT22;2011;48.238;13.948;2023-07-28T09:19:20;23.60;99.90
3994;DHT22;2011;48.238;13.948;2023-07-28T09:21:57;23.70;99.90
3994;DHT22;2011;48.238;13.948;2023-07-28T09:24:30;23.80;99.90
3994;DHT22;2011;48.238;13.948;2023-07-28T09:27:00;24.00;99.90
3994;DHT22;2011;48.238;13.948;2023-07-28T09:29:28;24.30;99.90
3994;DHT22;2011;48.238;13.948;2023-07-28T09:32:04;24.20;99.90
3994;DHT22;2011;48.238;13.948;2023-07-28T09:34:31;24.10;99.90
3994;DHT22;2011;48.238;13.948;2023-07-28T09:37:00;24.00;99.90
3994;DHT22;2011;48.238;13.948;2023-07-28T09:39:28;23.90;99.90
3994;DHT22;2011;48.238;13.948;2023-07-28T09:41:56;24.20;99.90
3994;DHT22;2011;48.238;13.948;2023-07-28T09:44:27;24.40;99.90
3994;DHT22;2011;48.238;13.948;2023-07-28T09:46:56;24.40;99.90
3994;DHT22;2011;48.238;13.948;2023-07-28T09:49:28;24.40;99.90
3994;DHT22;2011;48.238;13.948;2023-07-28T09:52:00;24.40;99.90
3994;DHT22;2011;48.238;13.948;2023-07-28T09:54:33;24.40;99.90
3994;DHT22;2011;48.238;13.948;2023-07-28T09:57:01;24.50;99.90
3994;DHT22;2011;48.238;13.948;2023-07-28T09:59:35;24.50;99.90
3994;DHT22;2011;48.238;13.948;2023-07-28T10:02:04;24.60;99.90
3994;DHT22;2011;48.238;13.948;2023-07-28T10:04:32;25.00;99.90
3994;DHT22;2011;48.238;13.948;2023-07-28T10:07:00;25.10;99.90
3994;DHT22;2011;48.238;13.948;2023-07-28T10:09:29;25.10;99.90
3994;DHT22;2011;48.238;13.948;2023-07-28T10:11:59;25.20;99.90
3994;DHT22;2011;48.238;13.948;2023-07-28T10:14:28;25.20;99.90
3994;DHT22;2011;48.238;13.948;2023-07-28T10:16:58;25.10;99.90
3994;DHT22;2011;48.238;13.948;2023-07-28T10:19:27;25.10;99.90
3994;DHT22;2011;48.238;13.948;2023-07-28T10:22:02;25.20;99.90
3994;DHT22;2011;48.238;13.948;2023-07-28T10:24:51;25.40;99.90
3994;DHT22;2011;48.238;13.948;2023-07-28T10:27:35;25.30;99.30
3994;DHT22;2011;48.238;13.948;2023-07-28T10:30:04;25.30;98.60
3994;DHT22;2011;48.238;13.948;2023-07-28T10:32:42;25.40;99.40
3994;DHT22;2011;48.238;13.948;2023-07-28T10:35:22;25.80;99.80
3994;DHT22;2011;48.238;13.948;2023-07-28T10:37:51;25.70;97.80
3994;DHT22;2011;48.238;13.948;2023-07-28T10:40:29;25.60;98.00
3994;DHT22;2011;48.238;13.948;2023-07-28T10:42:57;25.40;96.60
3994;DHT22;2011;48.238;13.948;2023-07-28T10:45:26;25.40;96.30
3994;DHT22;2011;48.238;13.948;2023-07-28T10:47:57;25.50;97.10
3994;DHT22;2011;48.238;13.948;2023-07-28T10:50:27;25.60;96.70
3994;DHT22;2011;48.238;13.948;2023-07-28T10:52:55;25.50;96.50
3994;DHT22;2011;48.238;13.948;2023-07-28T10:55:25;25.40;96.50
3994;DHT22;2011;48.238;13.948;2023-07-28T10:57:53;25.50;96.00
3994;DHT22;2011;48.238;13.948;2023-07-28T11:00:24;25.90;96.80
3994;DHT22;2011;48.238;13.948;2023-07-28T11:02:52;26.00;96.00
3994;DHT22;2011;48.238;13.948;2023-07-28T11:05:24;25.90;95.10
3994;DHT22;2011;48.238;13.948;2023-07-28T11:07:54;25.90;97.00
3994;DHT22;2011;48.238;13.948;2023-07-28T11:10:21;26.00;96.40
3994;DHT22;2011;48.238;13.948;2023-07-28T11:12:50;25.90;96.10
3994;DHT22;2011;48.238;13.948;2023-07-28T11:15:18;25.80;96.10
3994;DHT22;2011;48.238;13.948;2023-07-28T11:17:47;25.80;96.10
3994;DHT22;2011;48.238;13.948;2023-07-28T11:20:16;25.70;95.40
3994;DHT22;2011;48.238;13.948;2023-07-28T11:22:45;25.70;96.10
3994;DHT22;2011;48.238;13.948;2023-07-28T11:25:13;25.70;96.00
3994;DHT22;2011;48.238;13.948;2023-07-28T11:27:40;25.70;95.40
3994;DHT22;2011;48.238;13.948;2023-07-28T11:30:08;25.90;95.90
3994;DHT22;2011;48.238;13.948;2023-07-28T11:32:37;26.00;95.60
3994;DHT22;2011;48.238;13.948;2023-07-28T11:35:06;26.00;95.70
3994;DHT22;2011;48.238;13.948;2023-07-28T11:37:35;26.00;94.80
3994;DHT22;2011;48.238;13.948;2023-07-28T11:40:07;25.80;94.60
3994;DHT22;2011;48.238;13.948;2023-07-28T11:42:38;26.00;95.90
3994;DHT22;2011;48.238;13.948;2023-07-28T11:45:06;25.90;95.10
3994;DHT22;2011;48.238;13.948;2023-07-28T11:47:34;25.80;94.70
3994;DHT22;2011;48.238;13.948;2023-07-28T11:50:02;25.70;94.50
3994;DHT22;2011;48.238;13.948;2023-07-28T11:52:30;25.80;95.10
3994;DHT22;2011;48.238;13.948;2023-07-28T11:54:58;25.80;94.50
3994;DHT22;2011;48.238;13.948;2023-07-28T11:57:29;26.00;95.40
3994;DHT22;2011;48.238;13.948;2023-07-28T11:59:59;26.20;94.30
3994;DHT22;2011;48.238;13.948;2023-07-28T12:02:27;26.30;93.80
3994;DHT22;2011;48.238;13.948;2023-07-28T12:04:55;26.40;94.10
3994;DHT22;2011;48.238;13.948;2023-07-28T12:07:28;26.40;94.30
3994;DHT22;2011;48.238;13.948;2023-07-28T12:09:59;26.30;93.70
3994;DHT22;2011;48.238;13.948;2023-07-28T12:12:41;26.30;94.20
3994;DHT22;2011;48.238;13.948;2023-07-28T12:15:23;26.30;93.90
3994;DHT22;2011;48.238;13.948;2023-07-28T12:18:13;26.10;94.00
3994;DHT22;2011;48.238;13.948;2023-07-28T12:20:41;26.00;93.80
3994;DHT22;2011;48.238;13.948;2023-07-28T12:23:16;25.80;93.70
3994;DHT22;2011;48.238;13.948;2023-07-28T12:25:48;25.80;94.10
3994;DHT22;2011;48.238;13.948;2023-07-28T12:28:25;25.80;95.10
3994;DHT22;2011;48.238;13.948;2023-07-28T12:30:57;25.70;94.00
3994;DHT22;2011;48.238;13.948;2023-07-28T12:36:10;25.80;94.40
3994;DHT22;2011;48.238;13.948;2023-07-28T12:38:39;25.90;94.40
3994;DHT22;2011;48.238;13.948;2023-07-28T12:41:06;26.00;94.40
3994;DHT22;2011;48.238;13.948;2023-07-28T12:43:36;26.10;95.10
3994;DHT22;2011;48.238;13.948;2023-07-28T12:46:03;26.20;94.60
3994;DHT22;2011;48.238;13.948;2023-07-28T12:48:31;26.00;94.10
3994;DHT22;2011;48.238;13.948;2023-07-28T12:50:58;26.00;93.80
3994;DHT22;2011;48.238;13.948;2023-07-28T12:53:41;26.00;93.80
3994;DHT22;2011;48.238;13.948;2023-07-28T12:56:12;26.10;94.50
3994;DHT22;2011;48.238;13.948;2023-07-28T12:58:41;26.30;94.40
3994;DHT22;2011;48.238;13.948;2023-07-28T13:01:09;26.40;94.20
3994;DHT22;2011;48.238;13.948;2023-07-28T13:03:39;26.50;94.30
3994;DHT22;2011;48.238;13.948;2023-07-28T13:06:06;26.70;94.10
3994;DHT22;2011;48.238;13.948;2023-07-28T13:08:34;26.80;93.90
3994;DHT22;2011;48.238;13.948;2023-07-28T13:11:31;27.00;94.10
3994;DHT22;2011;48.238;13.948;2023-07-28T13:14:00;27.20;93.40
3994;DHT22;2011;48.238;13.948;2023-07-28T13:16:27;27.30;93.40
3994;DHT22;2011;48.238;13.948;2023-07-28T13:18:55;27.50;94.30
3994;DHT22;2011;48.238;13.948;2023-07-28T13:21:25;27.90;93.00
3994;DHT22;2011;48.238;13.948;2023-07-28T13:23:52;27.80;92.10
3994;DHT22;2011;48.238;13.948;2023-07-28T13:26:19;27.60;91.50
3994;DHT22;2011;48.238;13.948;2023-07-28T13:28:47;27.40;92.30
3994;DHT22;2011;48.238;13.948;2023-07-28T13:31:16;27.20;92.00
3994;DHT22;2011;48.238;13.948;2023-07-28T13:33:44;27.00;92.50
3994;DHT22;2011;48.238;13.948;2023-07-28T13:36:13;26.80;92.50
3994;DHT22;2011;48.238;13.948;2023-07-28T13:38:40;26.70;92.80
3994;DHT22;2011;48.238;13.948;2023-07-28T13:41:08;26.50;92.60
3994;DHT22;2011;48.238;13.948;2023-07-28T13:43:35;26.50;92.90
3994;DHT22;2011;48.238;13.948;2023-07-28T13:46:03;26.50;92.70
3994;DHT22;2011;48.238;13.948;2023-07-28T13:48:33;26.40;92.90
3994;DHT22;2011;48.238;13.948;2023-07-28T13:51:01;26.00;93.50
3994;DHT22;2011;48.238;13.948;2023-07-28T13:53:29;25.60;93.70
3994;DHT22;2011;48.238;13.948;2023-07-28T13:55:56;25.30;94.60
3994;DHT22;2011;48.238;13.948;2023-07-28T13:58:24;25.10;95.10
3994;DHT22;2011;48.238;13.948;2023-07-28T14:00:51;24.90;95.70
3994;DHT22;2011;48.238;13.948;2023-07-28T14:03:19;24.70;96.50
3994;DHT22;2011;48.238;13.948;2023-07-28T14:05:48;24.50;96.70
3994;DHT22;2011;48.238;13.948;2023-07-28T14:08:15;24.10;96.60
3994;DHT22;2011;48.238;13.948;2023-07-28T14:10:44;23.80;97.00
3994;DHT22;2011;48.238;13.948;2023-07-28T14:13:12;23.70;97.80
3994;DHT22;2011;48.238;13.948;2023-07-28T14:15:39;23.60;98.30
3994;DHT22;2011;48.238;13.948;2023-07-28T14:18:08;23.70;98.80
3994;DHT22;2011;48.238;13.948;2023-07-28T14:20:35;23.60;98.60
3994;DHT22;2011;48.238;13.948;2023-07-28T14:23:20;23.50;99.00
3994;DHT22;2011;48.238;13.948;2023-07-28T14:25:48;23.40;99.60
3994;DHT22;2011;48.238;13.948;2023-07-28T14:28:16;23.30;99.90
3994;DHT22;2011;48.238;13.948;2023-07-28T14:30:43;23.30;99.90
3994;DHT22;2011;48.238;13.948;2023-07-28T14:33:12;23.20;99.90
3994;DHT22;2011;48.238;13.948;2023-07-28T14:35:40;23.20;99.90
3994;DHT22;2011;48.238;13.948;2023-07-28T14:38:09;23.10;99.90
3994;DHT22;2011;48.238;13.948;2023-07-28T14:40:37;23.10;99.90
3994;DHT22;2011;48.238;13.948;2023-07-28T14:43:06;23.20;99.90
3994;DHT22;2011;48.238;13.948;2023-07-28T14:45:33;23.30;99.90
3994;DHT22;2011;48.238;13.948;2023-07-28T14:48:01;23.50;99.90
3994;DHT22;2011;48.238;13.948;2023-07-28T14:50:29;23.50;99.90
3994;DHT22;2011;48.238;13.948;2023-07-28T14:52:58;23.50;99.90
3994;DHT22;2011;48.238;13.948;2023-07-28T14:55:28;23.50;99.90
3994;DHT22;2011;48.238;13.948;2023-07-28T14:57:56;23.50;99.90
3994;DHT22;2011;48.238;13.948;2023-07-28T15:03:55;23.30;99.90
3994;DHT22;2011;48.238;13.948;2023-07-28T15:06:25;23.40;99.90
3994;DHT22;2011;48.238;13.948;2023-07-28T15:08:52;23.40;99.90
3994;DHT22;2011;48.238;13.948;2023-07-28T15:11:21;23.40;99.90
3994;DHT22;2011;48.238;13.948;2023-07-28T15:13:49;23.40;99.90
3994;DHT22;2011;48.238;13.948;2023-07-28T15:16:17;23.40;99.90
3994;DHT22;2011;48.238;13.948;2023-07-28T15:18:45;23.50;99.90
3994;DHT22;2011;48.238;13.948;2023-07-28T15:21:13;23.50;99.90
3994;DHT22;2011;48.238;13.948;2023-07-28T15:23:40;23.60;99.90
3994;DHT22;2011;48.238;13.948;2023-07-28T15:26:08;23.60;99.90
3994;DHT22;2011;48.238;13.948;2023-07-28T15:28:37;23.70;99.90
3994;DHT22;2011;48.238;13.948;2023-07-28T15:31:04;23.80;99.90
3994;DHT22;2011;48.238;13.948;2023-07-28T15:33:33;23.90;99.90
3994;DHT22;2011;48.238;13.948;2023-07-28T15:36:00;23.90;99.90
3994;DHT22;2011;48.238;13.948;2023-07-28T15:38:28;23.90;99.90
3994;DHT22;2011;48.238;13.948;2023-07-28T15:40:55;24.00;99.90
3994;DHT22;2011;48.238;13.948;2023-07-28T15:43:23;24.00;99.90
3994;DHT22;2011;48.238;13.948;2023-07-28T15:45:51;24.10;99.90
3994;DHT22;2011;48.238;13.948;2023-07-28T15:48:20;24.10;99.90
3994;DHT22;2011;48.238;13.948;2023-07-28T15:50:47;24.20;99.90
3994;DHT22;2011;48.238;13.948;2023-07-28T15:53:15;24.20;99.90
3994;DHT22;2011;48.238;13.948;2023-07-28T15:55:42;24.30;99.90
3994;DHT22;2011;48.238;13.948;2023-07-28T15:58:10;24.20;99.90
3994;DHT22;2011;48.238;13.948;2023-07-28T16:00:37;24.30;99.90